createdAt,value
2022-08-07T00:02:41.084Z,4.07
2022-08-07T00:04:52.875Z,3.83
2022-08-07T00:07:19.430Z,3.58
2022-08-07T00:09:59.279Z,3.67
2022-08-07T00:12:31.862Z,3.80
2022-08-07T00:14:58.771Z,3.78
2022-08-07T00:17:25.048Z,3.92
2022-08-07T00:20:01.288Z,3.80
2022-08-07T00:22:35.050Z,3.88
2022-08-07T00:25:01.956Z,3.78
2022-08-07T00:27:29.366Z,3.53
2022-08-07T00:30:26.746Z,3.85
2022-08-07T00:32:54.055Z,4.10
2022-08-07T00:35:20.260Z,4.18
2022-08-07T00:37:49.392Z,3.80
2022-08-07T00:40:17.013Z,4.47
2022-08-07T00:43:03.194Z,4.07
2022-08-07T00:45:29.375Z,4.63
2022-08-07T00:48:09.145Z,4.15
2022-08-07T00:50:46.465Z,3.90
2022-08-07T00:53:17.883Z,5.05
2022-08-07T00:56:02.383Z,4.45
2022-08-07T00:58:29.693Z,4.57
2022-08-07T01:00:55.904Z,4.40
2022-08-07T01:03:54.847Z,4.47
2022-08-07T01:06:08.283Z,4.07
2022-08-07T01:08:34.476Z,3.72
2022-08-07T01:11:00.807Z,4.25
2022-08-07T01:13:55.543Z,3.45
2022-08-07T01:16:30.574Z,3.80
2022-08-07T01:18:57.026Z,3.72
2022-08-07T01:21:25.871Z,3.97
2022-08-07T01:23:52.460Z,3.72
2022-08-07T01:26:19.526Z,3.95
2022-08-07T01:28:48.365Z,4.10
2022-08-07T01:31:15.454Z,3.70
2022-08-07T01:33:55.399Z,3.28
2022-08-07T01:36:22.589Z,3.63
2022-08-07T01:39:00.451Z,3.42
2022-08-07T01:41:27.002Z,3.50
2022-08-07T01:43:53.295Z,2.85
2022-08-07T01:46:19.486Z,3.10
2022-08-07T01:48:47.792Z,3.55
2022-08-07T01:52:02.765Z,3.60
2022-08-07T01:54:00.763Z,4.32
2022-08-07T01:56:36.269Z,3.15
2022-08-07T01:59:05.000Z,3.05
2022-08-07T02:02:02.015Z,3.13
2022-08-07T02:04:17.461Z,3.60
2022-08-07T02:06:43.786Z,2.95
2022-08-07T02:09:53.299Z,2.70
2022-08-07T02:12:05.041Z,3.25
2022-08-07T02:14:40.268Z,3.33
2022-08-07T02:17:07.444Z,3.20
2022-08-07T02:20:05.206Z,2.97
2022-08-07T02:22:20.091Z,3.00
2022-08-07T02:24:46.610Z,3.00
2022-08-07T02:27:14.770Z,3.13
2022-08-07T02:29:48.966Z,3.00
2022-08-07T02:32:23.450Z,2.80
2022-08-07T02:34:53.234Z,2.60
2022-08-07T02:37:19.441Z,2.58
2022-08-07T02:40:02.036Z,3.75
2022-08-07T02:42:31.834Z,3.22
2022-08-07T02:44:58.448Z,2.47
2022-08-07T02:47:24.763Z,2.78
2022-08-07T02:49:57.796Z,2.95
2022-08-07T02:52:31.141Z,2.70
2022-08-07T02:54:58.679Z,2.80
2022-08-07T02:57:31.037Z,3.25
2022-08-07T03:00:05.141Z,2.72
2022-08-07T03:02:37.233Z,3.08
2022-08-07T03:05:08.278Z,2.65
2022-08-07T03:07:43.222Z,2.75
2022-08-07T03:10:20.661Z,2.42
2022-08-07T03:12:49.746Z,2.72
2022-08-07T03:15:30.303Z,2.75
2022-08-07T03:18:04.339Z,2.75
2022-08-07T03:20:31.642Z,2.47
2022-08-07T03:22:57.825Z,2.35
2022-08-07T03:25:24.899Z,2.75
2022-08-07T03:28:08.873Z,2.72
2022-08-07T03:30:36.175Z,2.50
2022-08-07T03:33:02.374Z,2.20
2022-08-07T03:35:43.971Z,2.35
2022-08-07T03:38:15.655Z,2.78
2022-08-07T03:40:44.471Z,2.35
2022-08-07T03:43:14.564Z,2.97
2022-08-07T03:45:43.752Z,2.67
2022-08-07T03:48:13.954Z,2.55
2022-08-07T03:50:43.272Z,2.25
2022-08-07T03:54:01.883Z,2.65
2022-08-07T03:56:08.744Z,2.75
2022-08-07T03:59:08.476Z,2.97
2022-08-07T04:01:26.159Z,2.60
2022-08-07T04:03:55.082Z,3.00
2022-08-07T04:06:36.990Z,2.60
2022-08-07T04:09:04.751Z,2.50
2022-08-07T04:12:26.800Z,2.80
2022-08-07T04:14:37.677Z,3.15
2022-08-07T04:17:03.962Z,2.72
2022-08-07T04:19:51.036Z,2.13
2022-08-07T04:22:17.687Z,2.45
2022-08-07T04:24:44.113Z,2.45
2022-08-07T04:27:20.463Z,2.70
2022-08-07T04:30:02.314Z,2.72
2022-08-07T04:32:34.594Z,2.78
2022-08-07T04:35:01.356Z,2.70
2022-08-07T04:37:30.241Z,2.45
2022-08-07T04:40:16.425Z,2.33
2022-08-07T04:42:45.921Z,2.70
2022-08-07T04:45:44.411Z,2.70
2022-08-07T04:48:09.878Z,2.50
2022-08-07T04:50:37.003Z,2.70
2022-08-07T04:53:03.415Z,3.70
2022-08-07T04:58:11.157Z,3.00
2022-08-07T04:58:34.853Z,3.15
2022-08-07T05:01:02.067Z,2.80
2022-08-07T05:04:00.113Z,2.90
2022-08-07T05:06:19.699Z,2.95
2022-08-07T05:09:01.331Z,2.63
2022-08-07T05:11:57.203Z,2.72
2022-08-07T05:14:56.172Z,3.00
2022-08-07T05:17:00.671Z,3.20
2022-08-07T05:19:32.852Z,3.53
2022-08-07T05:22:11.254Z,2.75
2022-08-07T05:24:40.330Z,3.40
2022-08-07T05:27:07.019Z,3.10
2022-08-07T05:29:50.979Z,3.35
2022-08-07T05:32:18.485Z,3.20
2022-08-07T05:34:46.033Z,3.15
2022-08-07T05:37:12.873Z,3.25
2022-08-07T05:40:17.371Z,3.17
2022-08-07T05:42:33.292Z,2.97
2022-08-07T05:45:14.200Z,3.00
2022-08-07T05:48:01.777Z,3.03
2022-08-07T05:50:27.402Z,2.92
2022-08-07T05:52:54.033Z,2.97
2022-08-07T05:55:21.406Z,3.17
2022-08-07T05:57:49.125Z,2.90
2022-08-07T06:00:17.848Z,3.05
2022-08-07T06:02:44.201Z,2.60
2022-08-07T06:05:11.003Z,2.90
2022-08-07T06:08:13.170Z,2.47
2022-08-07T06:10:28.339Z,2.80
2022-08-07T06:12:54.582Z,2.92
2022-08-07T06:15:20.892Z,2.50
2022-08-07T06:17:53.759Z,2.95
2022-08-07T06:20:31.651Z,2.60
2022-08-07T06:23:02.445Z,2.70
2022-08-07T06:25:54.266Z,2.58
2022-08-07T06:28:27.766Z,2.60
2022-08-07T06:30:54.478Z,2.40
2022-08-07T06:33:22.540Z,2.97
2022-08-07T06:36:12.415Z,2.25
2022-08-07T06:38:35.384Z,2.15
2022-08-07T06:41:02.087Z,1.98
2022-08-07T06:43:28.366Z,2.55
2022-08-07T06:46:05.899Z,2.17
2022-08-07T06:48:37.855Z,1.90
2022-08-07T06:51:09.558Z,2.50
2022-08-07T06:55:28.553Z,2.40
2022-08-07T06:56:21.994Z,2.03
2022-08-07T07:00:14.348Z,1.95
2022-08-07T07:01:44.099Z,1.63
2022-08-07T07:04:28.290Z,1.60
2022-08-07T07:07:01.083Z,1.90
2022-08-07T07:09:31.250Z,1.58
2022-08-07T07:12:07.589Z,1.15
2022-08-07T07:14:40.318Z,1.40
2022-08-07T07:17:06.826Z,1.65
2022-08-07T07:19:57.204Z,1.90
2022-08-07T07:22:36.280Z,1.73
2022-08-07T07:26:32.401Z,2.00
2022-08-07T07:27:58.507Z,3.17
2022-08-07T07:30:37.898Z,3.45
2022-08-07T07:33:04.983Z,3.05
2022-08-07T07:35:33.517Z,3.55
2022-08-07T07:38:02.415Z,3.92
2022-08-07T07:40:31.160Z,3.83
2022-08-07T07:42:57.380Z,4.20
2022-08-07T07:46:35.631Z,3.88
2022-08-07T07:48:11.200Z,2.20
2022-08-07T07:50:40.239Z,2.10
2022-08-07T07:53:20.604Z,1.70
2022-08-07T07:55:54.846Z,2.20
2022-08-07T07:58:24.234Z,2.50
2022-08-07T08:00:54.218Z,2.03
2022-08-07T08:04:10.873Z,1.00
2022-08-07T08:06:07.639Z,1.08
2022-08-07T08:08:39.283Z,1.48
2022-08-07T08:11:09.295Z,0.80
2022-08-07T08:13:54.929Z,0.88
2022-08-07T08:16:25.189Z,1.10
2022-08-07T08:18:51.629Z,1.05
2022-08-07T08:21:17.816Z,1.25
2022-08-07T08:23:44.020Z,1.00
2022-08-07T08:26:12.363Z,1.20
2022-08-07T08:28:43.360Z,1.13
2022-08-07T08:31:15.749Z,1.20
2022-08-07T08:33:43.787Z,1.23
2022-08-07T08:36:15.942Z,1.13
2022-08-07T08:38:42.142Z,1.10
2022-08-07T08:41:10.843Z,1.27
2022-08-07T08:43:42.990Z,1.20
2022-08-07T08:46:16.699Z,1.75
2022-08-07T08:48:46.483Z,1.65
2022-08-07T08:51:26.055Z,1.80
2022-08-07T08:54:03.490Z,1.48
2022-08-07T08:56:29.732Z,1.80
2022-08-07T08:58:55.948Z,1.58
2022-08-07T09:01:22.217Z,1.55
2022-08-07T09:03:55.718Z,1.33
2022-08-07T09:06:23.050Z,1.50
2022-08-07T09:08:50.949Z,1.50
2022-08-07T09:11:24.247Z,1.23
2022-08-07T09:14:03.814Z,1.33
2022-08-07T09:16:30.761Z,1.00
2022-08-07T09:18:58.763Z,1.17
2022-08-07T09:21:33.858Z,2.10
2022-08-07T09:24:31.401Z,1.40
2022-08-07T09:26:57.514Z,1.55
2022-08-07T09:30:06.697Z,1.35
2022-08-07T09:32:16.957Z,1.13
2022-08-07T09:34:44.926Z,1.00
2022-08-07T09:37:20.336Z,1.40
2022-08-07T09:39:59.797Z,1.27
2022-08-07T09:42:28.371Z,1.00
2022-08-07T09:47:27.706Z,1.10
2022-08-07T09:47:59.943Z,0.95
2022-08-07T09:50:30.289Z,1.30
2022-08-07T09:52:56.545Z,1.15
2022-08-07T09:55:29.981Z,1.17
2022-08-07T09:58:09.179Z,1.10
2022-08-07T10:00:37.751Z,1.20
2022-08-07T10:03:13.376Z,3.65
2022-08-07T10:06:01.207Z,0.82
2022-08-07T10:08:28.963Z,1.30
2022-08-07T10:12:00.135Z,1.27
2022-08-07T10:14:00.881Z,1.40
2022-08-07T10:16:27.968Z,1.20
2022-08-07T10:18:54.153Z,1.15
2022-08-07T10:21:50.838Z,1.40
2022-08-07T10:24:08.415Z,1.20
2022-08-07T10:26:35.069Z,1.00
2022-08-07T10:29:01.252Z,1.33
2022-08-07T10:31:28.235Z,1.55
2022-08-07T10:34:05.769Z,1.42
2022-08-07T10:36:39.383Z,1.33
2022-08-07T10:39:05.800Z,1.10
2022-08-07T10:41:53.169Z,1.17
2022-08-07T10:44:28.355Z,1.25
2022-08-07T10:47:04.334Z,1.20
2022-08-07T10:49:49.147Z,1.10
2022-08-07T10:52:17.393Z,1.65
2022-08-07T10:54:53.251Z,1.00
2022-08-07T10:57:34.676Z,1.00
2022-08-07T11:00:01.053Z,0.90
2022-08-07T11:02:34.167Z,0.90
2022-08-07T11:05:04.260Z,1.52
2022-08-07T11:07:58.981Z,1.17
2022-08-07T11:10:22.999Z,1.00
2022-08-07T11:13:02.300Z,1.08
2022-08-07T11:15:31.950Z,1.25
2022-08-07T11:18:03.554Z,1.10
2022-08-07T11:20:30.728Z,1.17
2022-08-07T11:22:56.923Z,1.00
2022-08-07T11:25:23.343Z,0.95
2022-08-07T11:28:01.358Z,1.30
2022-08-07T11:30:38.998Z,1.15
2022-08-07T11:33:08.029Z,1.15
2022-08-07T11:35:59.559Z,1.02
2022-08-07T11:38:28.241Z,1.40
2022-08-07T11:40:54.629Z,1.10
2022-08-07T11:43:29.589Z,1.10
2022-08-07T11:46:08.539Z,1.20
2022-08-07T11:48:35.621Z,1.20
2022-08-07T11:51:03.801Z,1.23
2022-08-07T11:53:30.037Z,1.00
2022-08-07T11:56:13.927Z,0.93
2022-08-07T11:58:49.827Z,1.02
2022-08-07T12:01:20.192Z,0.73
2022-08-07T12:03:48.266Z,0.80
2022-08-07T12:06:36.241Z,1.20
2022-08-07T12:09:01.055Z,1.20
2022-08-07T12:11:32.424Z,1.02
2022-08-07T12:13:58.871Z,0.80
2022-08-07T12:16:30.508Z,1.00
2022-08-07T12:18:57.248Z,1.00
2022-08-07T12:21:55.846Z,1.10
2022-08-07T12:24:36.758Z,1.00
2022-08-07T12:26:55.777Z,0.95
2022-08-07T12:29:38.204Z,0.82
2022-08-07T12:32:06.362Z,1.08
2022-08-07T12:34:38.448Z,0.90
2022-08-07T12:37:08.180Z,1.17
2022-08-07T12:39:50.452Z,0.90
2022-08-07T12:42:17.351Z,1.02
2022-08-07T12:44:53.287Z,1.10
2022-08-07T12:47:21.845Z,1.00
2022-08-07T12:50:04.725Z,0.90
2022-08-07T12:52:33.972Z,1.27
2022-08-07T12:55:05.119Z,1.25
2022-08-07T12:57:39.045Z,1.20
2022-08-07T13:00:21.005Z,1.02
2022-08-07T13:02:58.783Z,1.00
2022-08-07T13:06:02.579Z,1.02
2022-08-07T13:08:11.899Z,1.10
2022-08-07T13:10:51.383Z,0.90
2022-08-07T13:13:47.426Z,0.90
2022-08-07T13:16:04.772Z,0.90
2022-08-07T13:18:31.002Z,1.00
2022-08-07T13:21:00.267Z,0.65
2022-08-07T13:24:02.011Z,1.00
2022-08-07T13:26:16.012Z,0.90
2022-08-07T13:28:44.511Z,0.90
2022-08-07T13:31:13.497Z,0.90
2022-08-07T13:34:34.553Z,1.00
2022-08-07T13:36:26.223Z,1.10
2022-08-07T13:38:54.364Z,0.70
2022-08-07T13:41:20.935Z,0.65
2022-08-07T13:43:52.560Z,0.95
2022-08-07T13:46:26.339Z,1.10
2022-08-07T13:48:58.646Z,0.85
2022-08-07T13:51:28.384Z,0.90
2022-08-07T13:54:16.643Z,1.30
2022-08-07T13:56:51.916Z,0.90
2022-08-07T13:59:22.219Z,1.15
2022-08-07T14:01:51.215Z,1.02
2022-08-07T14:04:35.724Z,1.20
2022-08-07T14:10:02.888Z,1.13
2022-08-07T14:12:16.302Z,1.27
2022-08-07T14:14:53.716Z,0.80
2022-08-07T14:18:12.152Z,0.90
2022-08-07T14:20:40.067Z,1.58
2022-08-07T14:22:52.300Z,0.95
2022-08-07T14:25:18.600Z,1.10
2022-08-07T14:28:12.965Z,1.13
2022-08-07T14:30:32.600Z,0.95
2022-08-07T14:32:59.446Z,0.90
2022-08-07T14:38:26.780Z,0.95
2022-08-07T14:40:57.691Z,1.10
2022-08-07T14:43:57.265Z,1.20
2022-08-07T14:46:10.522Z,1.33
2022-08-07T14:48:36.750Z,0.95
2022-08-07T14:51:03.002Z,0.82
2022-08-07T14:54:03.605Z,1.23
2022-08-07T14:59:03.238Z,0.90
2022-08-07T15:04:28.622Z,0.90
2022-08-07T15:06:55.313Z,1.17
2022-08-07T15:09:57.782Z,1.00
2022-08-07T15:12:07.764Z,0.80
2022-08-07T15:14:35.926Z,1.00
2022-08-07T15:17:22.500Z,0.90
2022-08-07T15:20:32.368Z,0.90
2022-08-07T15:22:38.025Z,1.13
2022-08-07T15:25:17.368Z,1.10
2022-08-07T15:28:30.823Z,1.27
2022-08-07T15:30:31.971Z,1.25
2022-08-07T15:36:02.371Z,1.00
2022-08-07T15:38:33.061Z,1.25
2022-08-07T15:41:24.356Z,0.93
2022-08-07T15:44:03.199Z,1.10
2022-08-07T15:49:15.650Z,1.30
2022-08-07T15:54:24.106Z,1.02
2022-08-07T15:56:52.536Z,0.73
2022-08-07T15:59:18.764Z,0.93
2022-08-07T16:01:44.939Z,1.10
2022-08-07T16:04:28.324Z,1.30
2022-08-07T16:06:58.255Z,1.10
2022-08-07T16:09:41.946Z,1.00
2022-08-07T16:12:12.154Z,1.20
2022-08-07T16:14:38.617Z,1.00
2022-08-07T16:17:15.103Z,1.10
2022-08-07T16:19:58.680Z,1.10
2022-08-07T16:22:33.354Z,0.90
2022-08-07T16:25:02.422Z,1.95
2022-08-07T16:27:40.448Z,1.50
2022-08-07T16:30:31.043Z,1.00
2022-08-07T16:32:54.671Z,1.13
2022-08-07T16:35:52.068Z,1.30
2022-08-07T16:38:11.290Z,0.98
2022-08-07T16:40:51.185Z,1.30
2022-08-07T16:43:23.912Z,1.17
2022-08-07T16:47:02.951Z,1.13
2022-08-07T16:58:00.837Z,1.10
2022-08-07T17:00:14.993Z,1.20
2022-08-07T17:02:51.174Z,1.05
2022-08-07T17:06:01.759Z,1.00
2022-08-07T17:08:09.127Z,1.60
2022-08-07T17:10:35.627Z,1.45
2022-08-07T17:13:03.475Z,1.27
2022-08-07T17:15:44.563Z,1.42
2022-08-07T17:18:16.054Z,1.10
2022-08-07T17:20:42.504Z,1.10
2022-08-07T17:23:13.176Z,1.30
2022-08-07T17:25:47.311Z,1.42
2022-08-07T17:28:19.457Z,1.25
2022-08-07T17:30:57.562Z,1.27
2022-08-07T17:34:10.229Z,1.20
2022-08-07T17:36:13.743Z,1.60
2022-08-07T17:38:47.161Z,1.10
2022-08-07T17:42:04.182Z,1.25
2022-08-07T17:44:05.836Z,1.00
2022-08-07T17:46:34.803Z,1.17
2022-08-07T17:49:01.051Z,1.00
2022-08-07T17:51:49.547Z,1.20
2022-08-07T17:54:29.522Z,1.30
2022-08-07T17:57:18.677Z,1.40
2022-08-07T17:59:45.560Z,1.45
2022-08-07T18:02:16.909Z,1.58
2022-08-07T18:04:49.739Z,1.38
2022-08-07T18:07:23.745Z,1.40
2022-08-07T18:10:06.907Z,1.40
2022-08-07T18:12:34.072Z,1.30
2022-08-07T18:15:00.554Z,1.08
2022-08-07T18:18:33.068Z,1.25
2022-08-07T18:21:10.406Z,1.10
2022-08-07T18:22:59.231Z,1.50
2022-08-07T18:25:40.170Z,1.48
2022-08-07T18:28:08.719Z,1.65
2022-08-07T18:30:37.598Z,1.13
2022-08-07T18:33:10.723Z,1.65
2022-08-07T18:35:51.831Z,1.10
2022-08-07T18:38:55.245Z,1.20
2022-08-07T18:41:10.231Z,1.30
2022-08-07T18:43:43.463Z,1.30
2022-08-07T18:46:25.157Z,1.70
2022-08-07T18:50:30.515Z,1.48
2022-08-07T18:52:34.673Z,1.38
2022-08-07T18:54:30.583Z,1.70
2022-08-07T18:56:58.413Z,1.83
2022-08-07T18:59:46.861Z,1.58
2022-08-07T19:02:36.451Z,1.70
2022-08-07T19:05:14.829Z,1.65
2022-08-07T19:07:51.664Z,1.55
2022-08-07T19:10:23.828Z,1.50
2022-08-07T19:12:59.549Z,1.75
2022-08-07T19:16:04.241Z,1.42
2022-08-07T19:18:34.685Z,1.45
2022-08-07T19:21:09.613Z,1.45
2022-08-07T19:23:59.081Z,1.50
2022-08-07T19:26:29.250Z,1.73
2022-08-07T19:30:56.548Z,1.77
2022-08-07T19:32:07.779Z,1.85
2022-08-07T19:34:33.698Z,1.80
2022-08-07T19:37:09.822Z,1.98
2022-08-07T19:39:57.782Z,2.22
2022-08-07T19:42:30.359Z,1.80
2022-08-07T19:44:56.838Z,2.00
2022-08-07T19:47:27.259Z,1.92
2022-08-07T19:49:56.357Z,2.38
2022-08-07T19:52:24.882Z,2.13
2022-08-07T19:54:56.497Z,1.75
2022-08-07T19:58:02.927Z,1.88
2022-08-07T20:00:10.148Z,1.67
2022-08-07T20:02:38.923Z,2.05
2022-08-07T20:05:07.832Z,2.38
2022-08-07T20:07:45.854Z,1.80
2022-08-07T20:10:35.616Z,2.17
2022-08-07T20:13:00.481Z,2.38
2022-08-07T20:15:33.110Z,2.40
2022-08-07T20:18:03.517Z,2.30
2022-08-07T20:20:30.534Z,2.00
2022-08-07T20:22:56.764Z,2.50
2022-08-07T20:25:23.320Z,1.95
2022-08-07T20:27:54.283Z,2.13
2022-08-07T20:30:24.925Z,2.47
2022-08-07T20:32:51.720Z,2.08
2022-08-07T20:35:22.003Z,2.08
2022-08-07T20:37:59.261Z,2.40
2022-08-07T20:40:32.787Z,2.15
2022-08-07T20:43:00.398Z,2.47
2022-08-07T20:46:24.221Z,2.13
2022-08-07T20:48:29.797Z,2.13
2022-08-07T20:50:57.891Z,2.25
2022-08-07T20:53:25.966Z,2.35
2022-08-07T20:56:10.311Z,2.88
2022-08-07T20:58:36.532Z,2.25
2022-08-07T21:01:04.685Z,2.45
2022-08-07T21:03:31.313Z,2.45
2022-08-07T21:06:00.824Z,3.28
2022-08-07T21:08:37.569Z,2.58
2022-08-07T21:11:05.227Z,2.60
2022-08-07T21:13:56.933Z,2.40
2022-08-07T21:16:23.020Z,2.72
2022-08-07T21:18:50.728Z,2.03
2022-08-07T21:21:19.608Z,2.58
2022-08-07T21:23:53.324Z,2.60
2022-08-07T21:26:19.509Z,2.22
2022-08-07T21:28:50.919Z,2.10
2022-08-07T21:31:17.477Z,2.33
2022-08-07T21:34:03.653Z,2.08
2022-08-07T21:36:33.086Z,2.35
2022-08-07T21:38:59.374Z,2.00
2022-08-07T21:41:26.198Z,2.25
2022-08-07T21:43:56.757Z,2.22
2022-08-07T21:46:25.273Z,2.38
2022-08-07T21:48:58.205Z,2.20
2022-08-07T21:51:25.008Z,2.80
2022-08-07T21:53:52.985Z,2.25
2022-08-07T21:56:40.302Z,2.13
2022-08-07T21:59:06.015Z,2.15
2022-08-07T22:02:07.217Z,2.10
2022-08-07T22:04:20.226Z,2.17
2022-08-07T22:06:49.584Z,2.60
2022-08-07T22:09:16.094Z,2.35
2022-08-07T22:11:52.989Z,2.35
2022-08-07T22:14:35.116Z,2.65
2022-08-07T22:17:02.853Z,2.97
2022-08-07T22:19:30.521Z,2.70
2022-08-07T22:22:01.865Z,2.60
2022-08-07T22:24:32.865Z,2.47
2022-08-07T22:26:59.495Z,2.60
2022-08-07T22:29:33.911Z,2.95
2022-08-07T22:32:12.771Z,2.58
2022-08-07T22:34:53.784Z,2.70
2022-08-07T22:37:20.044Z,2.65
2022-08-07T22:39:53.432Z,2.70
2022-08-07T22:45:10.956Z,2.45
2022-08-07T22:47:52.641Z,3.28
2022-08-07T22:50:20.650Z,3.00
2022-08-07T22:52:55.155Z,3.10
2022-08-07T22:55:22.824Z,3.30
2022-08-07T22:57:49.859Z,2.72
2022-08-07T23:00:16.205Z,3.17
2022-08-07T23:02:42.467Z,3.05
2022-08-07T23:06:09.037Z,2.72
2022-08-07T23:07:56.780Z,2.85
2022-08-07T23:10:38.128Z,3.40
2022-08-07T23:13:07.409Z,3.20
2022-08-07T23:16:07.069Z,3.22
2022-08-07T23:18:20.259Z,3.40
2022-08-07T23:20:53.162Z,3.45
2022-08-07T23:24:04.470Z,3.25
2022-08-07T23:26:06.115Z,3.38
2022-08-07T23:28:32.284Z,2.78
2022-08-07T23:31:07.154Z,3.38
2022-08-07T23:34:33.935Z,3.10
2022-08-07T23:36:28.753Z,2.92
2022-08-07T23:38:55.466Z,2.90
2022-08-07T23:41:22.495Z,3.30
2022-08-07T23:43:59.344Z,3.22
2022-08-07T23:46:27.286Z,3.72
2022-08-07T23:48:53.664Z,3.08
2022-08-07T23:52:58.788Z,4.15
2022-08-07T23:54:11.716Z,3.42
2022-08-07T23:56:53.791Z,3.22
